Black Star — 9HA2911 — position and weather

sailwx.info

Track history (hours):
 
Tides and Currents Weather Stations Pressure Air Temp Water Temp Dewpoint Dewpoint Depression Visibility Wind Speed Wind Dir Waves Ship Positions

Black Star

Last reported at 2015-Jan-26 07:16 UTC. Time now 2015-Jan-27 05:53 UTC.
Position N 39°13' W 009°57'.

Length 128 m; draft 7.3 m.

Type: Ship (hazmat cat C). MMSI: 256714000.

Date/timePositionNaut miles runAvg speedWind from/ knotsBaromVisibWave heightAir tempDewpointWater temp
2015-Jan-26 07:16N 39°13' W 009°57'810.7
2015-Jan-26 06:33N 39°05' W 009°57'1111.0
2015-Jan-26 05:33N 38°54' W 009°57'1111.0
2015-Jan-26 04:33N 38°43' W 009°57'1110.7
2015-Jan-26 03:33N 38°33' W 009°54'1110.6
2015-Jan-26 02:33N 38°22' W 009°51'1110.5
2015-Jan-26 01:33N 38°12' W 009°48'1110.8
2015-Jan-26 00:32N 38°02' W 009°45'1110.8
2015-Jan-25 23:32N 37°51' W 009°41'1010.6
2015-Jan-25 22:33N 37°41' W 009°38'1110.7
2015-Jan-25 21:33N 37°31' W 009°35'1111.2
2015-Jan-25 20:32N 37°20' W 009°32'1211.6
2015-Jan-25 19:33N 37°08' W 009°28'1211.6
2015-Jan-25 18:33N 36°57' W 009°24'3911.3
2015-Jan-25 15:05N 36°27' W 008°53'612.0
2015-Jan-25 14:33N 36°21' W 008°51'  
2015-Jan-22 08:05N 35°58' W 005°34'5 7.6
2015-Jan-22 07:23N 35°60' W 005°28'6 7.8
2015-Jan-22 06:33N 36°02' W 005°21'  
2015-Jan-18 20:33N 37°05' E 013°42'1211.9
2015-Jan-18 19:33N 37°00' E 013°56'1211.7
2015-Jan-18 18:33N 36°55' E 014°09'1212.0
2015-Jan-18 17:33N 36°49' E 014°22'1211.6
2015-Jan-18 16:33N 36°42' E 014°34'1211.4
2015-Jan-18 15:31N 36°39' E 014°48'  
Track history (hours):
 
Tides and Currents Weather Stations Pressure Air Temp Water Temp Dewpoint Dewpoint Depression Visibility Wind Speed Wind Dir Waves Ship Positions

Black Star

Last reported at 2015-Jan-26 07:16 UTC. Time now 2015-Jan-27 05:53 UTC.
Position N 39°13' W 009°57'.

Length 128 m; draft 7.3 m.

Type: Ship (hazmat cat C). MMSI: 256714000.

Date/timePositionNaut miles runAvg speedWind from/ knotsBaromVisibWave heightAir tempDewpointWater temp
2015-Jan-26 07:16N 39°13' W 009°57'810.7
2015-Jan-26 06:33N 39°05' W 009°57'1111.0
2015-Jan-26 05:33N 38°54' W 009°57'1111.0
2015-Jan-26 04:33N 38°43' W 009°57'1110.7
2015-Jan-26 03:33N 38°33' W 009°54'1110.6
2015-Jan-26 02:33N 38°22' W 009°51'1110.5
2015-Jan-26 01:33N 38°12' W 009°48'1110.8
2015-Jan-26 00:32N 38°02' W 009°45'1110.8
2015-Jan-25 23:32N 37°51' W 009°41'1010.6
2015-Jan-25 22:33N 37°41' W 009°38'1110.7
2015-Jan-25 21:33N 37°31' W 009°35'1111.2
2015-Jan-25 20:32N 37°20' W 009°32'1211.6
2015-Jan-25 19:33N 37°08' W 009°28'1211.6
2015-Jan-25 18:33N 36°57' W 009°24'3911.3
2015-Jan-25 15:05N 36°27' W 008°53'612.0
2015-Jan-25 14:33N 36°21' W 008°51'  
2015-Jan-22 08:05N 35°58' W 005°34'5 7.6
2015-Jan-22 07:23N 35°60' W 005°28'6 7.8
2015-Jan-22 06:33N 36°02' W 005°21'  
2015-Jan-18 20:33N 37°05' E 013°42'1211.9
2015-Jan-18 19:33N 37°00' E 013°56'1211.7
2015-Jan-18 18:33N 36°55' E 014°09'1212.0
2015-Jan-18 17:33N 36°49' E 014°22'1211.6
2015-Jan-18 16:33N 36°42' E 014°34'1211.4
2015-Jan-18 15:31N 36°39' E 014°48'  

Dump ship's entire track history